Marquette, Nebraska
Current Conditions -  °F | °C
As of 10:15 PM on Wednesday 17 Dec 2014 (Local Time) from KAUH Reporting Station
Overcast Overcast  
Wind Chill: 18°   Ceiling: 6000
Heat Index: 25°   Visibility: 10mi
Dew Point: 19°   Wind: 6mph
Humidity: 80%   Direction: 120°ESE
Pressure: 30.19"   Gusts: NA
Location:  41°N, 98.01°W
Report Text: KAUH 180415Z AUTO 12005KT 10SM OVC060 M04/M07 A3019 RMK AO2 T10401070
Loading
Personal Weather Stations






























Interactive Weather Map New forecast layout! Learn more

10-Day Weather Forecast

Advertisements
Track Severe Weather on mobile